Time;durP1;ratioP1;P1;durP2;ratioP2;P2;SDS_P1;SDS_P2;PMS_P1;PMS_P2;Temp;Humidity;BMP_temperature;BMP_pressure;BME280_temperature;BME280_humidity;BME280_pressure;Samples;Min_cycle;Max_cycle;Signal;HPM_P1;HPM_P2
2022/03/26 00:00:56;;;;;;;23.77;13.07;;;3.10;82.60;;;;;;2098848;28;20223;-72
2022/03/26 00:01:56;;;;;;;21.30;12.87;;;3.20;83.00;;;;;;2092331;28;20176;-71
2022/03/26 00:02:57;;;;;;;25.10;13.20;;;3.20;83.10;;;;;;2088074;28;20185;-70
2022/03/26 00:03:58;;;;;;;22.30;12.97;;;3.10;83.10;;;;;;2098326;28;20190;-74
2022/03/26 00:04:58;;;;;;;24.20;13.13;;;3.10;83.40;;;;;;2094853;28;20185;-72
2022/03/26 00:05:59;;;;;;;22.43;12.77;;;3.10;83.50;;;;;;2089156;28;20231;-72
2022/03/26 00:07:00;;;;;;;24.57;13.33;;;3.10;83.30;;;;;;2085133;28;20206;-76
2022/03/26 00:08:01;;;;;;;24.87;12.77;;;3.10;83.70;;;;;;2089432;28;20184;-75
2022/03/26 00:09:02;;;;;;;29.00;12.60;;;3.10;83.60;;;;;;2089987;28;20199;-76
2022/03/26 00:10:06;;;;;;;23.75;13.18;;;3.10;84.00;;;;;;2089739;28;20185;-76
2022/03/26 00:11:07;;;;;;;25.00;13.40;;;3.10;83.80;;;;;;2085038;28;20251;-75
2022/03/26 00:12:08;;;;;;;25.43;13.30;;;3.10;83.60;;;;;;2089358;28;20186;-75
2022/03/26 00:13:09;;;;;;;24.45;12.65;;;3.00;83.80;;;;;;2094417;28;20184;-73
2022/03/26 00:14:11;;;;;;;21.27;12.40;;;3.00;83.90;;;;;;2098053;28;20180;-70
2022/03/26 00:15:12;;;;;;;29.45;14.55;;;3.00;83.80;;;;;;2083665;28;20320;-71
2022/03/26 00:16:13;;;;;;;23.55;13.55;;;3.00;83.80;;;;;;2072979;28;20271;-71
2022/03/26 00:17:14;;;;;;;23.03;13.03;;;3.00;83.80;;;;;;2089921;28;20218;-72
2022/03/26 00:18:17;;;;;;;22.15;12.82;;;3.00;84.00;;;;;;2090139;28;20238;-71
2022/03/26 00:19:18;;;;;;;22.05;12.02;;;2.90;83.80;;;;;;2090205;28;20184;-72
2022/03/26 00:20:19;;;;;;;24.77;12.97;;;2.90;84.40;;;;;;2090429;28;20215;-72
2022/03/26 00:21:20;;;;;;;24.33;13.83;;;2.90;85.00;;;;;;2089990;28;20212;-72
2022/03/26 00:22:21;;;;;;;21.95;12.07;;;2.90;85.40;;;;;;2089813;28;20188;-72
2022/03/26 00:23:22;;;;;;;22.60;12.10;;;2.90;85.30;;;;;;2090229;28;20206;-72
2022/03/26 00:24:23;;;;;;;24.20;13.70;;;2.80;85.10;;;;;;2098049;28;20208;-72
2022/03/26 00:25:23;;;;;;;22.87;12.90;;;2.80;85.60;;;;;;2098252;28;20258;-72
2022/03/26 00:26:24;;;;;;;25.37;13.53;;;2.80;85.30;;;;;;2090111;28;20720;-72
2022/03/26 00:27:25;;;;;;;23.37;13.13;;;2.80;85.60;;;;;;2089509;28;20185;-71
2022/03/26 00:28:27;;;;;;;22.88;12.35;;;2.80;85.50;;;;;;2089814;28;20185;-72
2022/03/26 00:29:27;;;;;;;23.00;13.32;;;2.80;85.40;;;;;;2089820;28;20189;-71
2022/03/26 00:30:28;;;;;;;23.90;12.63;;;2.80;86.00;;;;;;2089859;28;20187;-71
2022/03/26 00:31:29;;;;;;;23.07;12.53;;;2.70;86.10;;;;;;2089274;28;20196;-71
2022/03/26 00:32:31;;;;;;;26.10;14.38;;;2.70;86.60;;;;;;2089921;28;20639;-71
2022/03/26 00:33:32;;;;;;;24.30;12.35;;;2.70;87.20;;;;;;2089708;28;20206;-73
2022/03/26 00:34:33;;;;;;;22.38;13.15;;;2.70;87.00;;;;;;2082169;28;20291;-71
2022/03/26 00:35:35;;;;;;;25.48;13.35;;;2.60;87.10;;;;;;2090681;28;20231;-71
2022/03/26 00:36:36;;;;;;;24.95;13.48;;;2.60;87.60;;;;;;2089557;28;20172;-72
2022/03/26 00:37:40;;;;;;;24.87;13.20;;;2.60;87.60;;;;;;2081664;28;20188;-72
2022/03/26 00:38:41;;;;;;;24.30;13.23;;;2.60;87.70;;;;;;2089656;28;20259;-71
2022/03/26 00:39:42;;;;;;;23.53;12.97;;;2.60;87.50;;;;;;2089891;28;20193;-72
2022/03/26 00:40:43;;;;;;;24.10;12.93;;;2.60;87.70;;;;;;2089628;28;20705;-72
2022/03/26 00:41:43;;;;;;;22.83;12.00;;;2.60;87.50;;;;;;2081185;28;20181;-72
2022/03/26 00:42:44;;;;;;;25.87;13.13;;;2.60;87.10;;;;;;2081002;28;20177;-72
2022/03/26 00:43:45;;;;;;;21.63;11.53;;;2.60;87.10;;;;;;2089775;28;20183;-72
2022/03/26 00:44:46;;;;;;;21.30;12.57;;;2.70;87.10;;;;;;2090225;28;20200;-72
2022/03/26 00:45:47;;;;;;;23.58;13.43;;;2.60;86.70;;;;;;2089723;28;20275;-72
2022/03/26 00:46:47;;;;;;;23.10;12.40;;;2.60;86.70;;;;;;2081175;28;20189;-72
2022/03/26 00:47:48;;;;;;;22.07;13.00;;;2.60;86.50;;;;;;2081379;28;20699;-72
2022/03/26 00:48:49;;;;;;;23.47;12.93;;;2.60;86.60;;;;;;2081395;28;20731;-72
2022/03/26 00:49:51;;;;;;;22.02;12.77;;;2.60;86.50;;;;;;2091338;28;20204;-72
2022/03/26 00:50:51;;;;;;;24.48;13.10;;;2.50;87.20;;;;;;2083080;28;20728;-71
2022/03/26 00:51:52;;;;;;;22.87;12.93;;;2.50;87.40;;;;;;2082517;28;20191;-72
2022/03/26 00:52:53;;;;;;;25.17;13.40;;;2.50;87.00;;;;;;2083072;28;20236;-71
2022/03/26 00:53:54;;;;;;;28.52;13.77;;;2.40;87.10;;;;;;2089925;28;20705;-72
2022/03/26 00:54:54;;;;;;;25.43;12.57;;;2.40;87.00;;;;;;2090259;28;20200;-72
2022/03/26 00:55:55;;;;;;;25.93;14.23;;;2.40;87.30;;;;;;2090202;28;20204;-71
2022/03/26 00:56:56;;;;;;;23.90;12.70;;;2.40;87.30;;;;;;2089772;28;20560;-72
2022/03/26 00:57:57;;;;;;;23.60;12.67;;;2.30;87.50;;;;;;2081369;28;20627;-72
2022/03/26 00:58:57;;;;;;;23.87;12.87;;;2.30;87.60;;;;;;2089749;28;20407;-72
2022/03/26 00:59:58;;;;;;;28.37;13.10;;;2.30;87.80;;;;;;2090265;28;20230;-72
2022/03/26 01:00:59;;;;;;;26.73;13.93;;;2.20;88.00;;;;;;2089574;28;20172;-72
2022/03/26 01:01:59;;;;;;;22.87;12.73;;;2.20;88.80;;;;;;2088886;28;20175;-72
2022/03/26 01:03:02;;;;;;;22.70;13.30;;;2.20;89.30;;;;;;2089572;28;20168;-72
2022/03/26 01:04:04;;;;;;;22.73;11.73;;;2.30;89.50;;;;;;2089308;28;20173;-72
2022/03/26 01:05:05;;;;;;;22.23;12.30;;;2.20;89.50;;;;;;2089554;28;20181;-72
2022/03/26 01:06:06;;;;;;;25.40;13.02;;;2.20;89.50;;;;;;2089323;28;20177;-72
2022/03/26 01:07:06;;;;;;;27.83;12.77;;;2.30;89.60;;;;;;2090249;28;20187;-72
2022/03/26 01:08:07;;;;;;;25.07;11.90;;;2.30;89.30;;;;;;2089475;28;20652;-72
2022/03/26 01:09:08;;;;;;;23.63;13.27;;;2.30;89.30;;;;;;2081271;28;20671;-72
2022/03/26 01:10:09;;;;;;;24.60;13.17;;;2.30;89.00;;;;;;2089392;28;20569;-71
2022/03/26 01:11:10;;;;;;;25.17;13.98;;;2.20;89.00;;;;;;2088789;28;20602;-72
2022/03/26 01:12:11;;;;;;;25.67;12.77;;;2.20;89.80;;;;;;2089390;28;20200;-72
2022/03/26 01:13:12;;;;;;;23.30;13.20;;;2.10;89.40;;;;;;2080739;28;20303;-72
2022/03/26 01:14:13;;;;;;;23.02;12.38;;;2.00;89.90;;;;;;2081111;28;20189;-72
2022/03/26 01:15:14;;;;;;;24.30;12.40;;;1.90;90.10;;;;;;2089562;28;20204;-72
2022/03/26 01:16:15;;;;;;;22.87;12.73;;;1.90;90.30;;;;;;2089706;28;20840;-72
2022/03/26 01:17:16;;;;;;;22.63;12.88;;;1.90;90.50;;;;;;2089244;28;20601;-72
2022/03/26 01:18:17;;;;;;;23.17;12.07;;;2.00;90.60;;;;;;2089335;28;20197;-72
2022/03/26 01:19:17;;;;;;;18.70;10.67;;;1.90;90.50;;;;;;2089365;28;20210;-72
2022/03/26 01:20:18;;;;;;;20.63;11.40;;;2.00;90.60;;;;;;2089275;28;20642;-72
2022/03/26 01:21:20;;;;;;;22.83;13.03;;;2.00;90.40;;;;;;2088636;28;20223;-72
2022/03/26 01:22:21;;;;;;;24.02;12.88;;;2.00;90.40;;;;;;2081055;28;20189;-72
2022/03/26 01:23:21;;;;;;;23.45;13.52;;;2.10;90.20;;;;;;2089373;28;20259;-72
2022/03/26 01:24:22;;;;;;;23.53;13.60;;;2.10;90.20;;;;;;2089228;28;20389;-72
2022/03/26 01:25:24;;;;;;;24.67;13.67;;;2.10;90.20;;;;;;2089438;28;20176;-72
2022/03/26 01:26:25;;;;;;;20.73;11.55;;;2.10;90.00;;;;;;2089189;28;20192;-73
2022/03/26 01:27:25;;;;;;;27.17;14.53;;;2.10;89.50;;;;;;2089327;28;20240;-72
2022/03/26 01:28:26;;;;;;;20.87;11.50;;;2.20;89.00;;;;;;2089815;28;20184;-72
2022/03/26 01:29:27;;;;;;;22.33;13.27;;;2.20;88.80;;;;;;2089905;28;20800;-72
2022/03/26 01:30:28;;;;;;;30.20;14.03;;;2.20;88.40;;;;;;2089832;28;20195;-72
2022/03/26 01:31:29;;;;;;;22.00;12.35;;;2.30;88.00;;;;;;2088670;28;20614;-72
2022/03/26 01:32:30;;;;;;;24.80;13.40;;;2.30;87.40;;;;;;2089102;28;20188;-72
2022/03/26 01:33:31;;;;;;;25.08;12.68;;;2.40;87.20;;;;;;2072928;28;20233;-72
2022/03/26 01:34:32;;;;;;;25.93;12.73;;;2.30;87.00;;;;;;2081158;28;20586;-72
2022/03/26 01:35:33;;;;;;;22.63;12.80;;;2.40;86.80;;;;;;2097481;28;20183;-72
2022/03/26 01:36:33;;;;;;;22.43;12.90;;;2.40;86.50;;;;;;2089261;28;20241;-72
2022/03/26 01:37:34;;;;;;;23.13;12.33;;;2.40;86.70;;;;;;2089115;28;20582;-72
2022/03/26 01:38:35;;;;;;;23.27;12.43;;;2.30;86.80;;;;;;2089406;28;20247;-72
2022/03/26 01:39:35;;;;;;;26.80;13.80;;;2.40;86.80;;;;;;2080822;28;20209;-72
2022/03/26 01:40:37;;;;;;;27.50;14.07;;;2.40;86.80;;;;;;2089196;28;20295;-72
2022/03/26 01:41:38;;;;;;;27.90;13.27;;;2.40;86.40;;;;;;2088525;28;20200;-72
2022/03/26 01:42:41;;;;;;;24.00;13.45;;;2.40;86.10;;;;;;2089156;28;20655;-71
2022/03/26 01:43:42;;;;;;;24.52;12.18;;;2.40;86.20;;;;;;2089622;28;20176;-71
2022/03/26 01:44:43;;;;;;;25.47;13.60;;;2.40;86.50;;;;;;2090002;28;20203;-71
2022/03/26 01:45:44;;;;;;;28.83;14.07;;;2.30;87.10;;;;;;2089083;28;20184;-71
2022/03/26 01:46:47;;;;;;;26.10;13.50;;;2.20;87.70;;;;;;2080930;28;20223;-71
2022/03/26 01:47:48;;;;;;;24.48;13.70;;;2.20;88.50;;;;;;2081125;28;20699;-71
2022/03/26 01:48:49;;;;;;;24.67;13.47;;;2.10;88.70;;;;;;2080880;28;20185;-71
2022/03/26 01:49:51;;;;;;;25.48;12.95;;;2.10;89.00;;;;;;2080966;28;20189;-71
2022/03/26 01:50:52;;;;;;;24.83;13.18;;;2.10;90.10;;;;;;2080948;28;20256;-70
2022/03/26 01:51:52;;;;;;;28.37;14.77;;;2.10;89.60;;;;;;2080271;28;20181;-71
2022/03/26 01:52:53;;;;;;;31.47;14.87;;;2.10;90.00;;;;;;2080832;28;20219;-73
2022/03/26 01:53:54;;;;;;;27.63;13.50;;;2.00;89.90;;;;;;2088919;28;20176;-72
2022/03/26 01:54:55;;;;;;;25.00;12.90;;;2.00;90.00;;;;;;2089656;28;20243;-72
2022/03/26 01:55:56;;;;;;;28.47;13.93;;;2.00;90.00;;;;;;2089646;28;20211;-72
2022/03/26 01:56:57;;;;;;;26.83;14.40;;;2.00;90.00;;;;;;2089076;28;20678;-72
2022/03/26 01:57:58;;;;;;;25.13;13.70;;;1.90;90.10;;;;;;2080780;28;20231;-72
2022/03/26 01:59:00;;;;;;;26.17;13.93;;;1.90;90.20;;;;;;2080784;28;20255;-72
2022/03/26 02:00:03;;;;;;;25.95;13.25;;;1.90;90.20;;;;;;2080806;28;20200;-72
2022/03/26 02:01:04;;;;;;;24.52;12.75;;;1.90;90.30;;;;;;2080298;28;20814;-72
2022/03/26 02:02:06;;;;;;;22.67;13.02;;;1.90;90.30;;;;;;2080566;28;20267;-73
2022/03/26 02:03:08;;;;;;;28.40;14.70;;;1.90;90.20;;;;;;2080991;28;20718;-72
2022/03/26 02:04:10;;;;;;;24.48;14.85;;;1.90;90.40;;;;;;2088905;28;20226;-73
2022/03/26 02:05:15;;;;;;;25.20;14.05;;;1.80;90.40;;;;;;2081113;28;20196;-72
2022/03/26 02:06:16;;;;;;;21.17;12.80;;;1.80;90.70;;;;;;2081424;28;20186;-72
2022/03/26 02:07:16;;;;;;;23.13;13.63;;;1.90;90.80;;;;;;2089039;28;20185;-72
2022/03/26 02:08:17;;;;;;;22.53;12.63;;;1.80;91.10;;;;;;2089632;28;20294;-73
2022/03/26 02:09:18;;;;;;;24.70;13.00;;;1.70;91.10;;;;;;2088928;28;20184;-72
2022/03/26 02:10:19;;;;;;;24.57;13.23;;;1.70;91.40;;;;;;2080837;28;20173;-72
2022/03/26 02:11:20;;;;;;;25.55;13.82;;;1.70;91.50;;;;;;2080346;28;20188;-73
2022/03/26 02:12:29;;;;;;;27.00;13.23;;;1.70;91.40;;;;;;2088803;28;20195;-72
2022/03/26 02:13:54;;;;;;;25.42;13.75;;;1.70;91.50;;;;;;2089694;28;20169;-72
2022/03/26 02:14:57;;;;;;;22.85;12.32;;;1.70;91.50;;;;;;2088952;28;20322;-72
2022/03/26 02:15:57;;;;;;;24.25;12.85;;;1.70;91.50;;;;;;2081014;28;20692;-72
2022/03/26 02:16:58;;;;;;;26.03;13.27;;;1.70;91.50;;;;;;2080666;28;20177;-73
2022/03/26 02:17:59;;;;;;;26.93;14.53;;;1.70;91.50;;;;;;2089063;28;20172;-73
2022/03/26 02:19:00;;;;;;;29.97;13.90;;;1.70;91.40;;;;;;2089858;28;20180;-72
2022/03/26 02:20:04;;;;;;;28.00;14.27;;;1.60;91.60;;;;;;2089187;28;20224;-73
2022/03/26 02:21:04;;;;;;;25.63;13.23;;;1.60;91.70;;;;;;2088634;28;20593;-72
2022/03/26 02:22:05;;;;;;;26.63;13.37;;;1.60;91.80;;;;;;2088858;28;20191;-73
2022/03/26 02:23:06;;;;;;;25.63;13.30;;;1.60;91.90;;;;;;2080813;28;20177;-73
2022/03/26 02:24:08;;;;;;;25.52;13.85;;;1.50;92.00;;;;;;2080653;28;20559;-72
2022/03/26 02:25:10;;;;;;;24.95;14.13;;;1.60;92.10;;;;;;2088883;28;20172;-72
2022/03/26 02:26:18;;;;;;;26.63;13.85;;;1.60;92.10;;;;;;2088929;28;20707;-72
2022/03/26 02:27:22;;;;;;;22.77;12.95;;;1.50;92.10;;;;;;2081577;28;20180;-72
2022/03/26 02:28:23;;;;;;;28.27;14.23;;;1.50;92.20;;;;;;2081126;28;20189;-73
2022/03/26 02:29:25;;;;;;;26.57;14.37;;;1.50;92.30;;;;;;2080494;28;20177;-72
2022/03/26 02:30:26;;;;;;;26.73;14.32;;;1.50;92.20;;;;;;2088683;28;20557;-72
2022/03/26 02:31:27;;;;;;;26.50;14.50;;;1.50;92.00;;;;;;2087992;28;20191;-72
2022/03/26 02:32:28;;;;;;;28.97;15.73;;;1.40;92.00;;;;;;2088947;28;20211;-72
2022/03/26 02:33:29;;;;;;;31.75;14.65;;;1.40;92.20;;;;;;2080549;28;20223;-72
2022/03/26 02:34:30;;;;;;;30.70;15.90;;;1.40;92.20;;;;;;2080594;28;20209;-73
2022/03/26 02:35:30;;;;;;;30.07;15.87;;;1.50;92.20;;;;;;2088730;28;20207;-72
2022/03/26 02:36:32;;;;;;;27.77;14.67;;;1.40;92.10;;;;;;2088760;28;20238;-73
2022/03/26 02:37:33;;;;;;;25.85;14.02;;;1.40;92.20;;;;;;2088621;28;20849;-72
2022/03/26 02:38:34;;;;;;;29.43;14.03;;;1.40;92.20;;;;;;2080597;28;20181;-72
2022/03/26 02:39:34;;;;;;;27.07;13.60;;;1.40;92.20;;;;;;2088816;28;20799;-73
2022/03/26 02:40:35;;;;;;;27.50;14.33;;;1.40;92.20;;;;;;2088734;28;20659;-72
2022/03/26 02:41:36;;;;;;;24.90;13.63;;;1.50;92.30;;;;;;2088121;28;20717;-72
2022/03/26 02:42:37;;;;;;;29.37;14.30;;;1.50;92.10;;;;;;2088804;28;20173;-73
2022/03/26 02:43:37;;;;;;;28.35;14.73;;;1.60;92.00;;;;;;2080506;28;20203;-72
2022/03/26 02:44:39;;;;;;;25.93;13.60;;;1.60;91.80;;;;;;2088755;28;20199;-73
2022/03/26 02:45:46;;;;;;;25.27;13.70;;;1.60;91.80;;;;;;2089210;28;20206;-72
2022/03/26 02:46:47;;;;;;;28.40;13.70;;;1.70;91.80;;;;;;2088693;28;20257;-72
2022/03/26 02:47:48;;;;;;;29.07;15.03;;;1.70;91.60;;;;;;2088668;28;20191;-72
2022/03/26 02:48:49;;;;;;;30.83;14.73;;;1.70;91.50;;;;;;2088686;28;20183;-72
2022/03/26 02:49:50;;;;;;;27.88;16.25;;;1.70;91.40;;;;;;2088560;28;20945;-73
2022/03/26 02:50:51;;;;;;;28.93;14.13;;;1.70;91.70;;;;;;2089325;28;20188;-72
2022/03/26 02:51:52;;;;;;;30.57;16.23;;;1.60;91.80;;;;;;2088539;28;20192;-73
2022/03/26 02:52:52;;;;;;;28.60;13.43;;;1.60;91.90;;;;;;2089269;28;20204;-72
2022/03/26 02:53:53;;;;;;;30.43;15.43;;;1.60;92.20;;;;;;2088589;28;20253;-72
2022/03/26 02:54:54;;;;;;;29.10;15.03;;;1.60;92.10;;;;;;2088628;28;20220;-72
2022/03/26 02:55:54;;;;;;;26.27;14.13;;;1.60;92.10;;;;;;2088392;28;20583;-73
2022/03/26 02:56:55;;;;;;;27.40;14.30;;;1.70;92.30;;;;;;2088729;28;20188;-73
2022/03/26 02:57:56;;;;;;;23.37;13.37;;;1.70;92.20;;;;;;2088641;28;20250;-72
2022/03/26 02:58:56;;;;;;;25.73;14.17;;;1.70;92.30;;;;;;2080417;28;20705;-73
2022/03/26 02:59:57;;;;;;;28.93;14.67;;;1.60;92.30;;;;;;2088683;28;21011;-72
2022/03/26 03:00:58;;;;;;;28.17;15.27;;;1.60;92.50;;;;;;2088560;28;20176;-72
2022/03/26 03:01:59;;;;;;;29.40;13.37;;;1.60;92.40;;;;;;2087914;28;20172;-72
2022/03/26 03:03:00;;;;;;;27.15;14.65;;;1.60;92.50;;;;;;2088507;28;20176;-72
2022/03/26 03:04:00;;;;;;;27.37;14.63;;;1.50;92.70;;;;;;2088723;28;20172;-73
2022/03/26 03:05:02;;;;;;;27.57;14.57;;;1.60;92.80;;;;;;2089115;28;20271;-73
2022/03/26 03:06:03;;;;;;;32.28;14.45;;;1.60;92.60;;;;;;2088598;28;20180;-72
2022/03/26 03:07:04;;;;;;;30.87;13.53;;;1.60;92.60;;;;;;2088478;28;20214;-72
2022/03/26 03:08:04;;;;;;;28.00;14.55;;;1.60;92.60;;;;;;2088520;28;20259;-72
2022/03/26 03:09:07;;;;;;;24.20;13.07;;;1.50;92.50;;;;;;2080218;28;20189;-73
2022/03/26 03:10:08;;;;;;;26.05;13.70;;;1.50;92.30;;;;;;2088693;28;20527;-72
2022/03/26 03:11:09;;;;;;;30.23;13.50;;;1.50;92.40;;;;;;2087875;28;20303;-72
2022/03/26 03:12:10;;;;;;;27.42;14.43;;;1.50;93.10;;;;;;2080462;28;20177;-72
2022/03/26 03:13:11;;;;;;;29.63;15.53;;;1.50;92.60;;;;;;2087874;28;20184;-73
2022/03/26 03:14:12;;;;;;;28.15;14.82;;;1.50;92.80;;;;;;2088592;28;20438;-72
2022/03/26 03:15:19;;;;;;;24.40;13.03;;;1.50;92.70;;;;;;2080618;28;20177;-72
2022/03/26 03:16:20;;;;;;;26.58;13.80;;;1.50;92.80;;;;;;2088567;28;20196;-72
2022/03/26 03:17:20;;;;;;;35.10;16.80;;;1.50;93.10;;;;;;2089017;28;20264;-72
2022/03/26 03:18:21;;;;;;;28.70;15.57;;;1.50;93.00;;;;;;2089286;28;20203;-72
2022/03/26 03:19:22;;;;;;;30.57;14.50;;;1.50;93.10;;;;;;2089173;28;20176;-72
2022/03/26 03:20:23;;;;;;;28.10;14.47;;;1.50;93.10;;;;;;2089237;28;20183;-72
2022/03/26 03:21:23;;;;;;;23.40;13.48;;;1.50;92.80;;;;;;2087337;28;20686;-72
2022/03/26 03:22:24;;;;;;;26.67;14.80;;;1.50;92.70;;;;;;2088468;28;20180;-73
2022/03/26 03:23:25;;;;;;;31.23;15.70;;;1.50;92.50;;;;;;2088383;28;20204;-72
2022/03/26 03:24:25;;;;;;;29.00;14.13;;;1.50;92.40;;;;;;2089104;28;20192;-72
2022/03/26 03:25:26;;;;;;;26.77;15.33;;;1.50;92.30;;;;;;2088930;28;20203;-70
2022/03/26 03:26:27;;;;;;;26.90;14.07;;;1.50;92.40;;;;;;2089119;28;20188;-72
2022/03/26 03:27:28;;;;;;;26.90;14.97;;;1.50;92.60;;;;;;2089008;28;20794;-72
2022/03/26 03:28:29;;;;;;;27.35;15.60;;;1.40;92.80;;;;;;2088410;28;20204;-72
2022/03/26 03:29:30;;;;;;;27.03;14.07;;;1.40;93.00;;;;;;2080146;28;20185;-74
2022/03/26 03:30:31;;;;;;;32.25;15.18;;;1.30;93.40;;;;;;2080292;28;20660;-72
2022/03/26 03:31:33;;;;;;;29.07;14.87;;;1.30;93.60;;;;;;2079510;28;20204;-72
2022/03/26 03:32:34;;;;;;;29.10;15.90;;;1.30;93.70;;;;;;2080297;28;20454;-72
2022/03/26 03:33:35;;;;;;;29.43;14.93;;;1.30;94.00;;;;;;2079801;28;20197;-73
2022/03/26 03:34:36;;;;;;;26.13;14.23;;;1.30;94.10;;;;;;2079964;28;20270;-72
2022/03/26 03:35:37;;;;;;;27.73;15.43;;;1.20;94.00;;;;;;2079969;28;20271;-72
2022/03/26 03:36:37;;;;;;;25.13;14.53;;;1.30;94.30;;;;;;2080066;28;20219;-72
2022/03/26 03:37:39;;;;;;;30.30;15.23;;;1.30;94.20;;;;;;2088210;28;20184;-72
2022/03/26 03:38:40;;;;;;;28.45;14.85;;;1.30;94.00;;;;;;2089026;28;20208;-73
2022/03/26 03:39:40;;;;;;;27.70;15.63;;;1.20;94.30;;;;;;2088070;28;20674;-72
2022/03/26 03:40:41;;;;;;;28.87;15.70;;;1.10;94.40;;;;;;2080131;28;20949;-72
2022/03/26 03:41:42;;;;;;;28.57;15.67;;;1.20;94.60;;;;;;2087615;28;20758;-72
2022/03/26 03:42:42;;;;;;;27.83;15.70;;;1.10;94.60;;;;;;2088308;28;20176;-71
2022/03/26 03:43:43;;;;;;;24.00;13.00;;;1.10;94.80;;;;;;2080011;28;20180;-72
2022/03/26 03:44:44;;;;;;;26.93;14.93;;;1.10;95.00;;;;;;2088274;28;20200;-72
2022/03/26 03:45:44;;;;;;;26.40;13.77;;;1.20;95.20;;;;;;2088632;28;20231;-72
2022/03/26 03:46:45;;;;;;;29.83;14.77;;;1.20;94.90;;;;;;2088274;28;20177;-72
2022/03/26 03:47:46;;;;;;;26.73;13.03;;;1.20;94.90;;;;;;2080151;28;20232;-72
2022/03/26 03:48:46;;;;;;;30.23;14.10;;;1.20;94.50;;;;;;2080077;28;20181;-72
2022/03/26 03:49:47;;;;;;;28.60;14.93;;;1.20;94.60;;;;;;2088504;28;20184;-72
2022/03/26 03:50:48;;;;;;;31.00;15.10;;;1.20;94.70;;;;;;2089041;28;20180;-72
2022/03/26 03:51:49;;;;;;;28.53;14.80;;;1.20;94.60;;;;;;2088633;28;20195;-71
2022/03/26 03:52:50;;;;;;;26.73;13.73;;;1.20;94.40;;;;;;2089073;28;20168;-71
2022/03/26 03:53:51;;;;;;;29.57;15.30;;;1.20;94.50;;;;;;2088325;28;20592;-72
2022/03/26 03:54:51;;;;;;;26.47;14.70;;;1.20;94.20;;;;;;2088096;28;20257;-72
2022/03/26 03:55:52;;;;;;;24.90;13.10;;;1.10;94.20;;;;;;2080106;28;20641;-72
2022/03/26 03:56:53;;;;;;;27.83;14.90;;;1.10;94.30;;;;;;2080016;28;20188;-72
2022/03/26 03:57:54;;;;;;;26.87;15.77;;;1.10;94.40;;;;;;2088295;28;20184;-72
2022/03/26 03:58:56;;;;;;;29.75;14.05;;;1.10;94.30;;;;;;2086817;28;20939;-72
2022/03/26 03:59:56;;;;;;;25.77;14.68;;;1.00;94.40;;;;;;2088380;28;20176;-72
2022/03/26 04:00:57;;;;;;;27.30;13.57;;;1.00;94.40;;;;;;2088314;28;20172;-72
2022/03/26 04:01:58;;;;;;;28.33;13.90;;;1.00;94.50;;;;;;2087847;28;20208;-72
2022/03/26 04:03:00;;;;;;;29.17;14.73;;;1.00;94.50;;;;;;2088956;28;20180;-72
2022/03/26 04:04:00;;;;;;;26.45;13.63;;;1.00;94.60;;;;;;2088355;28;20176;-73
2022/03/26 04:05:01;;;;;;;25.80;13.57;;;1.00;94.60;;;;;;2088493;28;20187;-72
2022/03/26 04:06:03;;;;;;;34.73;16.33;;;1.00;94.80;;;;;;2088331;28;20173;-72
2022/03/26 04:07:04;;;;;;;25.75;14.10;;;0.90;95.10;;;;;;2088341;28;20651;-72
2022/03/26 04:08:05;;;;;;;31.15;15.40;;;0.90;95.30;;;;;;2089021;28;20184;-72
2022/03/26 04:09:05;;;;;;;27.20;14.63;;;0.90;95.50;;;;;;2089046;28;20287;-72
2022/03/26 04:10:09;;;;;;;29.37;14.90;;;0.90;95.70;;;;;;2088936;28;20188;-72
2022/03/26 04:11:10;;;;;;;30.45;15.30;;;0.90;95.60;;;;;;2088135;28;20176;-71
2022/03/26 04:12:10;;;;;;;26.70;13.50;;;0.90;95.90;;;;;;2088388;28;20231;-72
2022/03/26 04:13:11;;;;;;;28.67;14.17;;;0.90;95.90;;;;;;2088240;28;20212;-72
2022/03/26 04:14:12;;;;;;;24.93;13.53;;;0.90;96.00;;;;;;2088247;28;20287;-72
2022/03/26 04:15:14;;;;;;;25.27;13.83;;;0.90;95.80;;;;;;2088177;28;20180;-72
2022/03/26 04:16:14;;;;;;;27.75;13.32;;;1.00;95.80;;;;;;2088894;28;20211;-72
2022/03/26 04:17:15;;;;;;;26.40;14.77;;;1.00;95.60;;;;;;2088734;28;20708;-72
2022/03/26 04:18:15;;;;;;;29.03;16.23;;;1.00;95.30;;;;;;2089004;28;20179;-72
2022/03/26 04:19:18;;;;;;;25.70;14.70;;;1.00;95.00;;;;;;2088956;28;20178;-72
2022/03/26 04:20:19;;;;;;;27.02;13.43;;;1.00;94.70;;;;;;2089108;28;20187;-72
2022/03/26 04:21:19;;;;;;;29.65;15.50;;;1.00;95.00;;;;;;2087779;28;20214;-72
2022/03/26 04:22:20;;;;;;;26.03;14.13;;;1.00;95.30;;;;;;2088341;28;20187;-72
2022/03/26 04:23:21;;;;;;;26.40;13.68;;;1.00;95.20;;;;;;2088224;28;20208;-72
2022/03/26 04:24:22;;;;;;;29.40;15.17;;;1.00;95.00;;;;;;2089014;28;20247;-72
2022/03/26 04:25:23;;;;;;;29.53;15.93;;;1.00;95.10;;;;;;2089966;28;20653;-72
2022/03/26 04:26:23;;;;;;;26.27;15.03;;;1.00;95.10;;;;;;2081640;28;20932;-72
2022/03/26 04:27:24;;;;;;;33.97;16.17;;;1.00;95.10;;;;;;2089923;28;20188;-72
2022/03/26 04:28:26;;;;;;;27.53;14.00;;;1.10;94.90;;;;;;2089818;28;20595;-72
2022/03/26 04:29:26;;;;;;;30.38;15.40;;;1.10;94.60;;;;;;2089853;28;20910;-72
2022/03/26 04:30:27;;;;;;;26.47;14.70;;;1.10;94.40;;;;;;2090371;28;20187;-72
2022/03/26 04:31:28;;;;;;;25.90;13.63;;;1.10;94.40;;;;;;2089284;28;20179;-72
2022/03/26 04:32:30;;;;;;;29.67;15.37;;;1.00;94.60;;;;;;2081501;28;20187;-72
2022/03/26 04:33:30;;;;;;;28.80;14.13;;;1.10;95.00;;;;;;2089748;28;20305;-72
2022/03/26 04:34:31;;;;;;;30.13;14.70;;;1.00;95.00;;;;;;2089726;28;20208;-73
2022/03/26 04:35:33;;;;;;;31.07;15.70;;;1.00;95.30;;;;;;2081623;28;20189;-73
2022/03/26 04:36:34;;;;;;;27.33;14.80;;;0.90;95.30;;;;;;2081452;28;20564;-72
2022/03/26 04:37:34;;;;;;;33.25;15.68;;;1.00;95.30;;;;;;2089896;28;20700;-72
2022/03/26 04:38:36;;;;;;;29.20;14.77;;;1.00;95.20;;;;;;2089652;28;20208;-73
2022/03/26 04:39:37;;;;;;;26.92;15.40;;;0.90;95.40;;;;;;2089795;28;20183;-72
2022/03/26 04:40:38;;;;;;;30.13;15.20;;;0.90;95.90;;;;;;2090465;28;20610;-72
2022/03/26 04:41:39;;;;;;;27.10;14.45;;;0.90;95.90;;;;;;2089346;28;20280;-72
2022/03/26 04:42:41;;;;;;;27.40;14.53;;;0.90;96.20;;;;;;2089810;28;20262;-73
2022/03/26 04:43:42;;;;;;;28.83;14.68;;;0.90;96.10;;;;;;2089757;28;20184;-72
2022/03/26 04:44:43;;;;;;;25.90;12.90;;;0.90;96.00;;;;;;2089760;28;20293;-73
2022/03/26 04:45:44;;;;;;;34.63;16.50;;;0.80;95.90;;;;;;2090498;28;20211;-72
2022/03/26 04:46:44;;;;;;;27.43;14.57;;;0.80;96.20;;;;;;2089680;28;20214;-71
2022/03/26 04:47:45;;;;;;;29.53;14.03;;;0.80;96.00;;;;;;2089623;28;20512;-71
2022/03/26 04:48:46;;;;;;;30.73;14.63;;;0.80;96.10;;;;;;2090005;28;20185;-72
2022/03/26 04:49:46;;;;;;;28.23;14.47;;;0.70;96.10;;;;;;2090259;28;20186;-72
2022/03/26 04:50:47;;;;;;;28.83;15.00;;;0.70;96.30;;;;;;2089542;28;20764;-71
2022/03/26 04:51:48;;;;;;;30.40;15.03;;;0.70;96.60;;;;;;2080772;28;20208;-72
2022/03/26 04:52:48;;;;;;;29.43;14.67;;;0.60;96.50;;;;;;2089441;28;20184;-72
2022/03/26 04:53:49;;;;;;;26.77;13.83;;;0.60;96.70;;;;;;2089544;28;20175;-72
2022/03/26 04:54:50;;;;;;;25.97;14.53;;;0.60;97.00;;;;;;2081420;28;20583;-72
2022/03/26 04:55:51;;;;;;;27.97;14.60;;;0.70;97.00;;;;;;2081276;28;20647;-72
2022/03/26 04:56:52;;;;;;;27.83;14.98;;;0.70;97.10;;;;;;2081294;28;20215;-72
2022/03/26 04:57:52;;;;;;;31.33;15.20;;;0.70;96.70;;;;;;2089545;28;20191;-72
2022/03/26 04:58:55;;;;;;;28.23;14.40;;;0.70;96.50;;;;;;2089449;28;20187;-72
2022/03/26 04:59:55;;;;;;;31.52;15.30;;;0.70;96.40;;;;;;2089471;28;20179;-72
2022/03/26 05:00:56;;;;;;;33.77;16.13;;;0.70;96.40;;;;;;2089348;28;20175;-72
2022/03/26 05:01:57;;;;;;;30.03;15.17;;;0.70;96.60;;;;;;2088835;28;20179;-72
2022/03/26 05:02:58;;;;;;;31.70;16.17;;;0.70;97.10;;;;;;2089340;28;20207;-71
2022/03/26 05:03:58;;;;;;;29.80;14.83;;;0.70;97.30;;;;;;2089482;28;20717;-72
2022/03/26 05:04:59;;;;;;;25.47;15.50;;;0.70;96.90;;;;;;2089921;28;20576;-72
2022/03/26 05:05:59;;;;;;;30.73;14.70;;;0.70;96.80;;;;;;2089454;28;20179;-72
2022/03/26 05:07:00;;;;;;;32.90;15.93;;;0.70;97.00;;;;;;2081226;28;20184;-71
2022/03/26 05:08:01;;;;;;;29.40;15.40;;;0.70;97.10;;;;;;2081175;28;20244;-72
2022/03/26 05:09:02;;;;;;;35.33;15.43;;;0.60;97.20;;;;;;2089430;28;20497;-72
2022/03/26 05:10:03;;;;;;;31.67;15.65;;;0.60;97.30;;;;;;2089249;28;20710;-72
2022/03/26 05:11:05;;;;;;;33.33;15.30;;;0.60;97.60;;;;;;2089129;28;20189;-72
2022/03/26 05:12:06;;;;;;;31.17;15.70;;;0.60;97.90;;;;;;2089940;28;20448;-74
2022/03/26 05:13:07;;;;;;;28.38;14.93;;;0.60;98.30;;;;;;2090021;28;20183;-72
2022/03/26 05:14:08;;;;;;;30.37;15.77;;;0.60;98.20;;;;;;2089225;28;20188;-71